createdAt,value
2022-12-25T00:00:50.943Z,12.90
2022-12-25T00:03:57.148Z,15.48
2022-12-25T00:07:00.122Z,15.40
2022-12-25T00:10:02.849Z,16.15
2022-12-25T00:13:07.025Z,13.70
2022-12-25T00:16:13.790Z,13.52
2022-12-25T00:19:20.360Z,13.13
2022-12-25T00:22:23.257Z,13.43
2022-12-25T00:25:26.109Z,12.27
2022-12-25T00:28:29.269Z,15.40
2022-12-25T00:31:32.122Z,18.77
2022-12-25T00:34:35.087Z,12.95
2022-12-25T00:37:37.880Z,13.13
2022-12-25T00:40:44.510Z,13.35
2022-12-25T00:43:50.368Z,13.40
2022-12-25T00:46:53.223Z,12.43
2022-12-25T00:49:56.083Z,15.52
2022-12-25T00:52:58.820Z,12.00
2022-12-25T00:56:04.259Z,14.27
2022-12-25T00:59:06.984Z,15.82
2022-12-25T01:02:24.902Z,13.70
2022-12-25T01:05:28.023Z,14.60
2022-12-25T01:08:33.509Z,14.80
2022-12-25T01:11:36.658Z,14.85
2022-12-25T01:14:42.369Z,16.08
2022-12-25T01:17:45.372Z,18.55
2022-12-25T01:20:54.160Z,14.23
2022-12-25T01:23:57.150Z,14.20
2022-12-25T01:27:06.223Z,13.57
2022-12-25T01:30:09.636Z,17.50
2022-12-25T01:33:12.627Z,12.70
2022-12-25T01:36:26.511Z,14.20
2022-12-25T01:39:32.512Z,14.80
2022-12-25T01:42:36.452Z,16.20
2022-12-25T01:45:45.439Z,12.85
2022-12-25T01:48:48.697Z,14.40
2022-12-25T01:51:56.176Z,14.52
2022-12-25T01:55:04.206Z,13.50
2022-12-25T01:58:07.235Z,16.40
2022-12-25T02:01:10.154Z,13.15
2022-12-25T02:04:18.618Z,16.45
2022-12-25T02:07:24.782Z,14.38
2022-12-25T02:10:27.660Z,12.60
2022-12-25T02:13:30.676Z,14.70
2022-12-25T02:16:57.304Z,12.45
2022-12-25T02:20:23.133Z,12.85
2022-12-25T02:23:42.483Z,10.98
2022-12-25T02:26:56.633Z,13.37
2022-12-25T02:30:09.422Z,13.43
2022-12-25T02:33:38.307Z,12.52
2022-12-25T02:36:54.788Z,11.63
2022-12-25T02:40:16.243Z,15.45
2022-12-25T02:44:06.964Z,14.17
2022-12-25T02:47:29.948Z,13.20
2022-12-25T02:50:51.219Z,15.45
2022-12-25T02:54:14.632Z,16.33
2022-12-25T02:57:41.418Z,14.73
2022-12-25T03:01:06.060Z,13.10
2022-12-25T03:04:31.166Z,15.63
2022-12-25T03:07:37.503Z,15.80
2022-12-25T03:11:05.236Z,13.25
2022-12-25T03:14:28.249Z,15.55
2022-12-25T03:17:32.656Z,14.20
2022-12-25T03:20:56.420Z,14.75
2022-12-25T03:24:21.112Z,16.12
2022-12-25T03:27:24.090Z,15.48
2022-12-25T03:30:56.384Z,16.58
2022-12-25T03:34:34.476Z,14.73
2022-12-25T03:37:45.643Z,15.65
2022-12-25T03:41:18.315Z,14.85
2022-12-25T03:44:55.851Z,12.35
2022-12-25T03:48:13.620Z,14.73
2022-12-25T03:51:38.447Z,14.80
2022-12-25T03:55:00.573Z,14.95
2022-12-25T03:58:24.829Z,14.23
2022-12-25T04:01:46.376Z,13.23
2022-12-25T04:05:11.198Z,15.10
2022-12-25T04:08:35.587Z,12.73
2022-12-25T04:12:02.270Z,14.15
2022-12-25T04:15:27.172Z,14.25
2022-12-25T04:18:48.360Z,14.07
2022-12-25T04:22:09.510Z,14.23
2022-12-25T04:25:30.691Z,12.33
2022-12-25T04:28:52.444Z,13.75
2022-12-25T04:32:13.570Z,14.38
2022-12-25T04:35:42.404Z,14.15
2022-12-25T04:38:47.973Z,14.57
2022-12-25T04:41:51.054Z,15.03
2022-12-25T04:44:53.916Z,16.42
2022-12-25T04:48:00.050Z,14.27
2022-12-25T04:51:16.455Z,15.23
2022-12-25T04:54:22.577Z,14.27
2022-12-25T04:57:28.305Z,13.60
2022-12-25T05:00:34.494Z,18.05
2022-12-25T05:03:37.919Z,31.27
2022-12-25T05:06:40.759Z,17.33
2022-12-25T05:09:43.523Z,21.37
2022-12-25T05:12:46.244Z,18.20
2022-12-25T05:15:49.015Z,15.70
2022-12-25T05:18:52.684Z,16.25
2022-12-25T05:21:57.922Z,16.00
2022-12-25T05:25:00.637Z,16.65
2022-12-25T05:28:03.470Z,16.03
2022-12-25T05:31:06.851Z,19.87
2022-12-25T05:34:09.560Z,17.55
2022-12-25T05:37:12.427Z,25.90
2022-12-25T05:40:15.318Z,23.77
2022-12-25T05:43:19.771Z,24.03
2022-12-25T05:46:23.944Z,18.55
2022-12-25T05:49:26.926Z,23.35
2022-12-25T05:52:33.841Z,18.15
2022-12-25T05:55:38.052Z,19.20
2022-12-25T05:58:41.853Z,17.83
2022-12-25T06:01:44.919Z,18.42
2022-12-25T06:04:47.963Z,18.98
2022-12-25T06:07:50.894Z,19.33
2022-12-25T06:10:53.731Z,21.03
2022-12-25T06:13:56.722Z,21.00
2022-12-25T06:16:59.716Z,21.75
2022-12-25T06:20:02.924Z,23.30
2022-12-25T06:23:05.857Z,22.98
2022-12-25T06:26:11.759Z,21.67
2022-12-25T06:29:14.800Z,20.63
2022-12-25T06:32:18.711Z,22.37
2022-12-25T06:35:24.780Z,22.95
2022-12-25T06:38:30.825Z,18.83
2022-12-25T06:41:33.876Z,23.43
2022-12-25T06:44:36.695Z,20.07
2022-12-25T06:47:39.595Z,19.92
2022-12-25T06:50:45.527Z,22.45
2022-12-25T06:53:49.025Z,22.70
2022-12-25T06:56:51.855Z,20.53
2022-12-25T06:59:55.635Z,19.30
2022-12-25T07:02:59.382Z,22.35
2022-12-25T07:06:02.676Z,20.77
2022-12-25T07:09:05.669Z,18.30
2022-12-25T07:12:19.352Z,24.10
2022-12-25T07:15:22.349Z,21.67
2022-12-25T07:18:26.041Z,21.23
2022-12-25T07:21:28.936Z,21.40
2022-12-25T07:24:31.839Z,23.27
2022-12-25T07:27:34.805Z,22.80
2022-12-25T07:30:38.218Z,32.90
2022-12-25T07:33:41.683Z,22.58
2022-12-25T07:36:44.630Z,23.15
2022-12-25T07:39:47.517Z,28.45
2022-12-25T07:42:50.369Z,26.30
2022-12-25T07:46:00.628Z,55.53
2022-12-25T07:49:03.682Z,45.60
2022-12-25T07:52:06.646Z,61.65
2022-12-25T07:55:10.165Z,51.25
2022-12-25T07:58:15.141Z,37.23
2022-12-25T08:01:27.370Z,31.40
2022-12-25T08:04:30.625Z,33.35
2022-12-25T08:07:33.903Z,29.48
2022-12-25T08:10:37.662Z,23.12
2022-12-25T08:13:43.414Z,20.50
2022-12-25T08:16:47.248Z,22.03
2022-12-25T08:19:50.333Z,27.52
2022-12-25T08:22:53.199Z,26.12
2022-12-25T08:26:04.589Z,28.25
2022-12-25T08:29:08.124Z,25.10
2022-12-25T08:32:11.163Z,26.57
2022-12-25T08:35:14.008Z,29.50
2022-12-25T08:38:16.840Z,27.92
2022-12-25T08:41:19.705Z,27.95
2022-12-25T08:44:22.608Z,26.13
2022-12-25T08:47:25.440Z,21.83
2022-12-25T08:50:28.351Z,24.40
2022-12-25T08:53:31.124Z,22.55
2022-12-25T08:56:34.044Z,25.67
2022-12-25T08:59:36.861Z,25.87
2022-12-25T09:02:40.392Z,23.57
2022-12-25T09:05:43.296Z,20.08
2022-12-25T09:08:49.544Z,15.20
2022-12-25T09:11:52.678Z,16.75
2022-12-25T09:14:55.505Z,21.00
2022-12-25T09:17:58.312Z,18.00
2022-12-25T09:21:05.783Z,23.12
2022-12-25T09:24:08.985Z,23.17
2022-12-25T09:27:11.922Z,27.13
2022-12-25T09:30:14.861Z,30.97
2022-12-25T09:33:18.285Z,28.77
2022-12-25T09:36:23.611Z,23.73
2022-12-25T09:39:26.630Z,24.98
2022-12-25T09:42:37.640Z,25.27
2022-12-25T09:45:40.658Z,23.30
2022-12-25T09:48:48.921Z,18.60
2022-12-25T09:52:00.186Z,18.33
2022-12-25T09:55:19.592Z,14.80
2022-12-25T09:58:25.668Z,15.25
2022-12-25T10:01:41.861Z,16.10
2022-12-25T10:05:09.050Z,20.10
2022-12-25T10:08:35.271Z,16.73
2022-12-25T10:11:40.898Z,15.23
2022-12-25T10:15:08.769Z,14.60
2022-12-25T10:18:37.567Z,14.97
2022-12-25T10:21:41.788Z,19.70
2022-12-25T10:24:49.771Z,15.65
2022-12-25T10:28:05.256Z,13.40
2022-12-25T10:31:23.823Z,11.40
2022-12-25T10:34:29.119Z,12.17
2022-12-25T10:37:32.071Z,13.50
2022-12-25T10:40:52.471Z,11.05
2022-12-25T10:43:57.287Z,11.82
2022-12-25T10:47:06.362Z,12.80
2022-12-25T10:50:19.623Z,11.97
2022-12-25T10:53:25.564Z,11.40
2022-12-25T10:56:28.572Z,11.85
2022-12-25T10:59:36.647Z,11.68
2022-12-25T11:02:41.145Z,13.45
2022-12-25T11:05:50.778Z,12.70
2022-12-25T11:08:56.175Z,12.87
2022-12-25T11:12:05.425Z,11.73
2022-12-25T11:15:34.462Z,11.73
2022-12-25T11:18:52.187Z,38.40
2022-12-25T11:21:57.851Z,45.50
2022-12-25T11:25:13.136Z,14.07
2022-12-25T11:28:16.061Z,9.93
2022-12-25T11:31:21.892Z,10.70
2022-12-25T11:34:24.794Z,14.63
2022-12-25T11:37:44.216Z,10.75
2022-12-25T11:40:53.039Z,9.77
2022-12-25T11:43:59.655Z,10.57
2022-12-25T11:47:13.509Z,12.65
2022-12-25T11:50:44.237Z,30.42
2022-12-25T11:53:56.800Z,13.27
2022-12-25T11:57:01.223Z,15.80
2022-12-25T12:00:09.445Z,16.23
2022-12-25T12:03:28.895Z,10.40
2022-12-25T12:06:45.655Z,11.55
2022-12-25T12:10:06.800Z,12.50
2022-12-25T12:13:38.409Z,12.90
2022-12-25T12:16:41.541Z,10.93
2022-12-25T12:19:44.822Z,11.65
2022-12-25T12:22:51.586Z,11.52
2022-12-25T12:25:54.751Z,10.68
2022-12-25T12:29:03.504Z,12.77
2022-12-25T12:32:15.055Z,10.73
2022-12-25T12:35:21.168Z,12.15
2022-12-25T12:38:24.971Z,11.02
2022-12-25T12:41:43.925Z,12.45
2022-12-25T12:44:46.910Z,10.87
2022-12-25T12:47:59.934Z,12.48
2022-12-25T12:51:40.259Z,12.93
2022-12-25T12:55:13.394Z,13.23
2022-12-25T12:58:35.022Z,13.32
2022-12-25T13:02:32.174Z,12.70
2022-12-25T13:05:42.741Z,13.80
2022-12-25T13:08:56.103Z,13.75
2022-12-25T13:12:09.521Z,11.20
2022-12-25T13:15:18.815Z,11.75
2022-12-25T13:18:24.959Z,12.23
2022-12-25T13:21:37.487Z,14.85
2022-12-25T13:24:55.967Z,13.25
2022-12-25T13:27:59.822Z,13.18
2022-12-25T13:31:18.181Z,15.23
2022-12-25T13:34:39.259Z,16.73
2022-12-25T13:37:43.684Z,14.40
2022-12-25T13:41:12.909Z,14.98
2022-12-25T13:44:27.292Z,11.85
2022-12-25T13:47:37.250Z,16.43
2022-12-25T13:50:48.685Z,12.00
2022-12-25T13:53:51.898Z,12.82
2022-12-25T13:56:58.644Z,18.48
2022-12-25T14:00:02.217Z,18.73
2022-12-25T14:03:08.996Z,13.95
2022-12-25T14:06:25.890Z,18.30
2022-12-25T14:09:28.942Z,14.98
2022-12-25T14:12:32.039Z,15.63
2022-12-25T14:15:36.681Z,17.83
2022-12-25T14:18:51.007Z,17.53
2022-12-25T14:21:58.391Z,20.03
2022-12-25T14:25:01.729Z,21.95
2022-12-25T14:28:09.022Z,23.73
2022-12-25T14:31:12.223Z,21.52
2022-12-25T14:34:23.485Z,20.17
2022-12-25T14:37:31.447Z,18.53
2022-12-25T14:40:36.415Z,15.98
2022-12-25T14:43:40.712Z,16.95
2022-12-25T14:46:48.798Z,15.82
2022-12-25T14:49:54.785Z,16.57
2022-12-25T14:52:59.375Z,17.13
2022-12-25T14:56:05.148Z,18.62
2022-12-25T14:59:17.973Z,20.45
2022-12-25T15:02:20.896Z,18.42
2022-12-25T15:05:35.821Z,20.30
2022-12-25T15:08:38.615Z,18.43
2022-12-25T15:11:41.626Z,21.62
2022-12-25T15:14:46.772Z,23.08
2022-12-25T15:17:50.349Z,22.65
2022-12-25T15:20:53.549Z,23.33
2022-12-25T15:23:58.683Z,21.60
2022-12-25T15:27:01.787Z,25.08
2022-12-25T15:30:13.465Z,29.50
2022-12-25T15:33:17.978Z,32.70
2022-12-25T15:36:21.173Z,44.00
2022-12-25T15:39:24.110Z,27.13
2022-12-25T15:42:27.588Z,42.55
2022-12-25T15:45:31.263Z,50.30
2022-12-25T15:48:34.006Z,70.95
2022-12-25T15:51:36.926Z,64.70
2022-12-25T15:54:39.942Z,76.67
2022-12-25T15:57:44.626Z,79.28
2022-12-25T16:00:47.456Z,52.53
2022-12-25T16:03:50.259Z,59.03
2022-12-25T16:06:53.460Z,79.00
2022-12-25T16:09:56.269Z,85.97
2022-12-25T16:12:59.054Z,84.75
2022-12-25T16:16:03.123Z,121.18
2022-12-25T16:19:06.583Z,97.32
2022-12-25T16:22:21.863Z,72.17
2022-12-25T16:25:25.257Z,94.30
2022-12-25T16:28:28.414Z,57.65
2022-12-25T16:31:31.371Z,37.25
2022-12-25T16:34:34.250Z,33.35
2022-12-25T16:37:37.031Z,20.83
2022-12-25T16:40:40.133Z,20.43
2022-12-25T16:43:43.814Z,22.98
2022-12-25T16:46:47.837Z,31.75
2022-12-25T16:49:50.647Z,47.30
2022-12-25T16:52:53.483Z,42.87
2022-12-25T16:56:08.499Z,30.67
2022-12-25T16:59:22.677Z,24.55
2022-12-25T17:02:25.743Z,18.12
2022-12-25T17:05:33.155Z,22.00
2022-12-25T17:08:37.781Z,20.97
2022-12-25T17:11:40.847Z,15.70
2022-12-25T17:14:43.673Z,14.18
2022-12-25T17:17:46.534Z,15.32
2022-12-25T17:20:50.828Z,13.70
2022-12-25T17:24:01.250Z,14.27
2022-12-25T17:27:08.940Z,12.80
2022-12-25T17:30:12.054Z,12.25
2022-12-25T17:33:14.879Z,12.20
2022-12-25T17:36:19.985Z,14.13
2022-12-25T17:39:23.170Z,22.53
2022-12-25T17:42:26.030Z,37.60
2022-12-25T17:45:28.943Z,50.35
2022-12-25T17:48:31.784Z,30.33
2022-12-25T17:51:34.547Z,29.80
2022-12-25T17:54:40.811Z,30.80
2022-12-25T17:57:44.086Z,32.30
2022-12-25T18:00:47.531Z,25.48
2022-12-25T18:03:52.767Z,21.45
2022-12-25T18:06:58.538Z,19.35
2022-12-25T18:10:03.101Z,29.53
2022-12-25T18:13:11.371Z,37.40
2022-12-25T18:16:14.959Z,44.00
2022-12-25T18:19:18.692Z,45.30
2022-12-25T18:22:22.416Z,40.88
2022-12-25T18:25:25.355Z,36.67
2022-12-25T18:28:28.519Z,32.43
2022-12-25T18:31:33.017Z,29.45
2022-12-25T18:34:35.849Z,30.02
2022-12-25T18:37:40.163Z,33.58
2022-12-25T18:40:44.555Z,34.03
2022-12-25T18:43:54.282Z,36.63
2022-12-25T18:46:58.152Z,34.58
2022-12-25T18:50:04.949Z,30.83
2022-12-25T18:53:08.044Z,28.77
2022-12-25T18:56:14.119Z,25.17
2022-12-25T18:59:18.139Z,23.77
2022-12-25T19:02:21.066Z,26.33
2022-12-25T19:05:24.291Z,24.30
2022-12-25T19:08:27.257Z,23.65
2022-12-25T19:11:30.197Z,24.20
2022-12-25T19:14:48.016Z,20.63
2022-12-25T19:17:51.287Z,19.87
2022-12-25T19:20:54.047Z,15.35
2022-12-25T19:23:56.887Z,15.95
2022-12-25T19:26:59.859Z,16.43
2022-12-25T19:30:02.798Z,14.57
2022-12-25T19:33:08.141Z,15.32
2022-12-25T19:36:16.488Z,12.13
2022-12-25T19:39:20.188Z,14.02
2022-12-25T19:42:23.927Z,13.27
2022-12-25T19:45:26.801Z,15.17
2022-12-25T19:48:31.106Z,20.45
2022-12-25T19:51:37.147Z,17.85
2022-12-25T19:54:40.097Z,19.05
2022-12-25T19:57:43.139Z,18.90
2022-12-25T20:00:46.063Z,23.03
2022-12-25T20:03:49.961Z,23.25
2022-12-25T20:06:52.883Z,16.60
2022-12-25T20:09:55.831Z,16.10
2022-12-25T20:12:58.728Z,16.83
2022-12-25T20:16:02.064Z,17.07
2022-12-25T20:19:06.507Z,15.48
2022-12-25T20:22:09.501Z,18.55
2022-12-25T20:25:14.337Z,18.40
2022-12-25T20:28:17.361Z,17.07
2022-12-25T20:31:27.945Z,17.73
2022-12-25T20:34:30.984Z,17.23
2022-12-25T20:37:34.092Z,16.02
2022-12-25T20:40:53.367Z,16.62
2022-12-25T20:44:02.098Z,17.13
2022-12-25T20:47:05.116Z,14.53
2022-12-25T20:50:08.468Z,13.65
2022-12-25T20:53:11.984Z,15.27
2022-12-25T20:56:17.172Z,15.82
2022-12-25T20:59:20.188Z,14.97
2022-12-25T21:02:34.709Z,15.77
2022-12-25T21:05:50.023Z,15.57
2022-12-25T21:08:53.587Z,14.05
2022-12-25T21:11:56.542Z,12.27
2022-12-25T21:14:59.848Z,10.57
2022-12-25T21:18:04.023Z,12.17
2022-12-25T21:21:07.910Z,12.55
2022-12-25T21:24:11.412Z,13.30
2022-12-25T21:27:14.270Z,11.95
2022-12-25T21:30:17.251Z,12.70
2022-12-25T21:33:38.521Z,12.00
2022-12-25T21:36:41.796Z,15.15
2022-12-25T21:39:44.688Z,14.35
2022-12-25T21:42:47.504Z,17.23
2022-12-25T21:45:50.435Z,16.40
2022-12-25T21:48:53.854Z,13.10
2022-12-25T21:52:11.298Z,15.75
2022-12-25T21:55:14.323Z,15.80
2022-12-25T21:58:17.147Z,17.42
2022-12-25T22:01:20.285Z,15.60
2022-12-25T22:04:24.059Z,14.70
2022-12-25T22:07:26.912Z,19.45
2022-12-25T22:10:31.385Z,17.10
2022-12-25T22:13:52.641Z,18.67
2022-12-25T22:17:14.008Z,14.77
2022-12-25T22:20:31.559Z,14.83
2022-12-25T22:23:34.459Z,17.60
2022-12-25T22:26:37.473Z,18.80
2022-12-25T22:29:40.871Z,20.15
2022-12-25T22:32:44.063Z,19.93
2022-12-25T22:35:46.981Z,19.10
2022-12-25T22:38:49.848Z,17.10
2022-12-25T22:41:59.032Z,16.60
2022-12-25T22:45:03.980Z,15.77
2022-12-25T22:48:06.857Z,16.10
2022-12-25T22:51:09.702Z,12.60
2022-12-25T22:54:19.959Z,15.77
2022-12-25T22:57:23.316Z,19.52
2022-12-25T23:00:26.335Z,15.43
2022-12-25T23:03:29.367Z,15.63
2022-12-25T23:06:32.450Z,15.93
2022-12-25T23:09:35.441Z,18.12
2022-12-25T23:12:56.703Z,14.98
2022-12-25T23:15:59.609Z,11.43
2022-12-25T23:19:20.840Z,15.07
2022-12-25T23:22:42.102Z,16.30
2022-12-25T23:26:03.410Z,15.85
2022-12-25T23:29:25.141Z,16.70
2022-12-25T23:32:28.418Z,14.10
2022-12-25T23:35:31.278Z,17.43
2022-12-25T23:38:35.907Z,15.47
2022-12-25T23:41:46.548Z,15.38
2022-12-25T23:44:55.182Z,13.05
2022-12-25T23:48:00.754Z,16.42
2022-12-25T23:51:08.830Z,15.33
2022-12-25T23:54:14.751Z,17.03
2022-12-25T23:57:20.458Z,15.10
